Time;durP1;ratioP1;P1;durP2;ratioP2;P2;SDS_P1;SDS_P2;PMS_P1;PMS_P2;Temp;Humidity;BMP_temperature;BMP_pressure;BME280_temperature;BME280_humidity;BME280_pressure;Samples;Min_cycle;Max_cycle;Signal;HPM_P1;HPM_P2
2021/08/26 00:07:02;;;;;;;;;;;16.20;99.90;;;;;;1883358;76;20120;-72
2021/08/26 00:09:29;;;;;;;;;;;16.20;99.90;;;;;;1883193;76;20113;-71
2021/08/26 00:11:56;;;;;;;;;;;16.20;99.90;;;;;;1883201;76;20437;-71
2021/08/26 00:14:24;;;;;;;;;;;16.10;99.90;;;;;;1883200;75;20424;-71
2021/08/26 00:16:52;;;;;;;;;;;16.20;99.90;;;;;;1883205;76;20417;-71
2021/08/26 00:19:20;;;;;;;;;;;16.20;99.90;;;;;;1883068;76;20131;-71
2021/08/26 00:21:47;;;;;;;;;;;16.10;99.90;;;;;;1882725;75;20124;-71
2021/08/26 00:24:14;;;;;;;;;;;16.20;99.90;;;;;;1882858;75;20413;-72
2021/08/26 00:26:41;;;;;;;;;;;16.10;99.90;;;;;;1883165;76;20414;-71
2021/08/26 00:29:07;;;;;;;;;;;16.10;99.90;;;;;;1882983;75;20164;-71
2021/08/26 00:31:34;;;;;;;;;;;16.20;99.90;;;;;;1882671;75;20221;-71
2021/08/26 00:34:01;;;;;;;;;;;16.10;99.90;;;;;;1882933;76;20128;-71
2021/08/26 00:36:28;;;;;;;;;;;16.10;99.90;;;;;;1882963;75;20183;-71
2021/08/26 00:38:55;;;;;;;;;;;16.10;99.90;;;;;;1883114;76;20168;-72
2021/08/26 00:41:25;;;;;;;;;;;16.10;99.90;;;;;;1882746;75;20108;-71
2021/08/26 00:43:52;;;;;;;;;;;16.00;99.90;;;;;;1883203;76;20121;-71
2021/08/26 00:46:19;;;;;;;;;;;16.10;99.90;;;;;;1883192;75;20461;-72
2021/08/26 00:48:47;;;;;;;;;;;16.00;99.90;;;;;;1883281;76;20155;-71
2021/08/26 00:51:14;;;;;;;;;;;16.00;99.90;;;;;;1883123;76;20116;-71
2021/08/26 00:53:41;;;;;;;;;;;16.10;99.90;;;;;;1883446;76;20305;-71
2021/08/26 00:56:09;;;;;;;;;;;16.00;99.90;;;;;;1883343;75;20171;-71
2021/08/26 00:58:36;;;;;;;;;;;16.00;99.90;;;;;;1883017;76;20113;-72
2021/08/26 01:01:03;;;;;;;;;;;16.00;99.90;;;;;;1883104;76;20116;-71
2021/08/26 01:03:50;;;;;;;;;;;15.90;99.90;;;;;;1883176;76;20124;-71
2021/08/26 01:06:18;;;;;;;;;;;15.90;99.90;;;;;;1882914;75;20109;-71
2021/08/26 01:08:46;;;;;;;;;;;16.00;99.90;;;;;;1883007;76;20160;-71
2021/08/26 01:11:15;;;;;;;;;;;15.90;99.90;;;;;;1882245;75;20167;-71
2021/08/26 01:13:43;;;;;;;;;;;15.90;99.90;;;;;;1883438;75;20171;-72
2021/08/26 01:16:14;;;;;;;;;;;15.90;99.90;;;;;;1883468;75;20210;-71
2021/08/26 01:18:42;;;;;;;;;;;15.90;99.90;;;;;;1883412;76;20127;-71
2021/08/26 01:21:09;;;;;;;;;;;15.80;99.90;;;;;;1920205;75;20145;-71
2021/08/26 01:23:38;;;;;;;;;;;15.80;99.90;;;;;;1921146;74;20191;-71
2021/08/26 01:26:05;;;;;;;;;;;15.80;99.90;;;;;;1921088;73;20183;-71
2021/08/26 01:28:33;;;;;;;;;;;15.70;99.90;;;;;;1921150;75;20199;-71
2021/08/26 01:31:00;;;;;;;;;;;15.60;99.90;;;;;;1920084;75;20196;-72
2021/08/26 01:33:27;;;;;;;;;;;15.50;99.90;;;;;;1921235;75;20149;-72
2021/08/26 01:35:54;;;;;;;;;;;15.50;99.90;;;;;;1921098;73;20222;-71
2021/08/26 01:38:22;;;;;;;;;;;15.50;99.90;;;;;;1921040;75;20261;-71
2021/08/26 01:40:49;;;;;;;;;;;15.40;99.90;;;;;;1920847;75;20457;-71
2021/08/26 01:43:16;;;;;;;;;;;15.40;99.90;;;;;;1921083;75;20236;-72
2021/08/26 01:45:43;;;;;;;;;;;15.40;99.90;;;;;;1921178;73;20141;-71
2021/08/26 01:48:11;;;;;;;;;;;15.40;99.90;;;;;;1921061;75;20184;-71
2021/08/26 01:50:37;;;;;;;;;;;15.40;99.90;;;;;;1921372;75;20215;-71
2021/08/26 01:53:05;;;;;;;;;;;15.40;99.90;;;;;;1921175;75;20179;-71
2021/08/26 01:55:31;;;;;;;;;;;15.40;99.90;;;;;;1921259;73;20153;-71
2021/08/26 01:57:59;;;;;;;;;;;15.40;99.90;;;;;;1920957;74;20639;-71
2021/08/26 02:00:26;;;;;;;;;;;15.50;99.90;;;;;;1920871;74;20172;-71
2021/08/26 02:02:53;;;;;;;;;;;15.50;99.90;;;;;;1921000;74;20222;-71
2021/08/26 02:05:20;;;;;;;;;;;15.40;99.90;;;;;;1920859;73;20188;-71
2021/08/26 02:07:48;;;;;;;;;;;15.40;99.90;;;;;;1921044;74;20506;-72
2021/08/26 02:10:15;;;;;;;;;;;15.30;99.90;;;;;;1920705;75;20195;-73
2021/08/26 02:12:42;;;;;;;;;;;15.30;99.90;;;;;;1921058;74;20128;-71
2021/08/26 02:15:10;;;;;;;;;;;15.30;99.90;;;;;;1920989;73;20164;-71
2021/08/26 02:17:36;;;;;;;;;;;15.30;99.90;;;;;;1921125;75;20175;-71
2021/08/26 02:20:05;;;;;;;;;;;15.30;99.90;;;;;;1921003;75;20199;-71
2021/08/26 02:22:31;;;;;;;;;;;15.20;99.90;;;;;;1920769;74;20195;-72
2021/08/26 02:24:59;;;;;;;;;;;15.20;99.90;;;;;;1921034;73;20203;-71
2021/08/26 02:27:26;;;;;;;;;;;15.20;99.90;;;;;;1921044;75;20207;-71
2021/08/26 02:29:53;;;;;;;;;;;15.20;99.90;;;;;;1921217;75;20141;-71
2021/08/26 02:32:19;;;;;;;;;;;15.10;99.90;;;;;;1920726;75;20489;-72
2021/08/26 02:34:46;;;;;;;;;;;15.10;99.90;;;;;;1913761;73;20183;-70
2021/08/26 02:37:13;;;;;;;;;;;15.10;99.90;;;;;;1863421;77;20121;-70
2021/08/26 02:39:40;;;;;;;;;;;15.10;99.90;;;;;;1870842;77;20176;-70
2021/08/26 02:42:07;;;;;;;;;;;15.10;99.90;;;;;;1870636;76;20128;-70
2021/08/26 02:44:33;;;;;;;;;;;15.10;99.90;;;;;;1873596;75;20149;-70
2021/08/26 02:47:00;;;;;;;;;;;15.00;99.90;;;;;;1902831;75;20178;-70
2021/08/26 02:49:27;;;;;;;;;;;15.00;99.90;;;;;;1902901;75;20214;-70
2021/08/26 02:51:54;;;;;;;;;;;15.00;99.90;;;;;;1902493;75;20162;-70
2021/08/26 02:54:21;;;;;;;;;;;15.00;99.90;;;;;;1902864;74;20202;-70
2021/08/26 02:56:47;;;;;;;;;;;15.00;99.90;;;;;;1902768;75;20104;-70
2021/08/26 02:59:14;;;;;;;;;;;14.90;99.90;;;;;;1902908;75;20170;-70
2021/08/26 03:01:41;;;;;;;;;;;15.00;99.90;;;;;;1902586;75;20293;-70
2021/08/26 03:04:08;;;;;;;;;;;15.00;99.90;;;;;;1902617;75;20259;-70
2021/08/26 03:06:35;;;;;;;;;;;15.00;99.90;;;;;;1902970;74;20166;-70
2021/08/26 03:09:01;;;;;;;;;;;15.00;99.90;;;;;;1902912;75;20162;-70
2021/08/26 03:11:28;;;;;;;;;;;14.90;99.90;;;;;;1902564;75;20208;-70
2021/08/26 03:13:55;;;;;;;;;;;14.80;99.90;;;;;;1902881;75;20169;-70
2021/08/26 03:16:22;;;;;;;;;;;14.90;99.90;;;;;;1902850;74;20171;-70
2021/08/26 03:18:49;;;;;;;;;;;14.90;99.90;;;;;;1902832;75;20220;-70
2021/08/26 03:21:16;;;;;;;;;;;14.80;99.90;;;;;;1902684;75;20151;-70
2021/08/26 03:23:42;;;;;;;;;;;14.80;99.90;;;;;;1902887;75;20150;-70
2021/08/26 03:26:09;;;;;;;;;;;14.80;99.90;;;;;;1902894;74;20171;-70
2021/08/26 03:28:36;;;;;;;;;;;14.70;99.90;;;;;;1902813;75;20158;-70
2021/08/26 03:31:03;;;;;;;;;;;14.70;99.90;;;;;;1902687;75;20157;-70
2021/08/26 03:33:30;;;;;;;;;;;14.70;99.90;;;;;;1902933;75;20162;-70
2021/08/26 03:35:56;;;;;;;;;;;14.70;99.90;;;;;;1902846;74;20196;-70
2021/08/26 03:38:23;;;;;;;;;;;14.70;99.90;;;;;;1902846;75;20151;-70
2021/08/26 03:40:50;;;;;;;;;;;14.80;99.90;;;;;;1902637;75;20162;-70
2021/08/26 03:43:17;;;;;;;;;;;14.80;99.90;;;;;;1902922;75;20149;-70
2021/08/26 03:45:44;;;;;;;;;;;14.70;99.90;;;;;;1902696;74;20293;-70
2021/08/26 03:48:10;;;;;;;;;;;14.70;99.90;;;;;;1902719;75;20185;-71
2021/08/26 03:50:37;;;;;;;;;;;14.80;99.90;;;;;;1902199;75;20174;-71
2021/08/26 03:53:04;;;;;;;;;;;14.80;99.90;;;;;;1902563;75;20178;-70
2021/08/26 03:55:31;;;;;;;;;;;14.80;99.90;;;;;;1902493;74;20182;-71
2021/08/26 03:57:58;;;;;;;;;;;14.80;99.90;;;;;;1902722;75;20145;-70
2021/08/26 04:00:24;;;;;;;;;;;14.70;99.90;;;;;;1902338;75;20170;-70
2021/08/26 04:02:51;;;;;;;;;;;14.70;99.90;;;;;;1902907;75;20122;-70
2021/08/26 04:05:18;;;;;;;;;;;14.60;99.90;;;;;;1902588;74;20182;-70
2021/08/26 04:07:45;;;;;;;;;;;14.60;99.90;;;;;;1902564;75;20166;-70
2021/08/26 04:10:12;;;;;;;;;;;14.50;99.90;;;;;;1902592;75;20166;-70
2021/08/26 04:12:39;;;;;;;;;;;14.60;99.90;;;;;;1902581;75;20428;-70
2021/08/26 04:15:06;;;;;;;;;;;14.50;99.90;;;;;;1903001;74;20161;-70
2021/08/26 04:17:33;;;;;;;;;;;14.40;99.90;;;;;;1902643;75;20208;-70
2021/08/26 04:20:00;;;;;;;;;;;14.40;99.90;;;;;;1902760;75;20127;-70
2021/08/26 04:22:27;;;;;;;;;;;14.50;99.90;;;;;;1902520;75;20197;-70
2021/08/26 04:24:54;;;;;;;;;;;14.40;99.90;;;;;;1902726;74;20162;-70
2021/08/26 04:27:20;;;;;;;;;;;14.40;99.90;;;;;;1902825;75;20120;-70
2021/08/26 04:29:47;;;;;;;;;;;14.40;99.90;;;;;;1902718;75;20455;-70
2021/08/26 04:32:14;;;;;;;;;;;14.50;99.90;;;;;;1902474;75;20188;-70
2021/08/26 04:34:41;;;;;;;;;;;14.50;99.90;;;;;;1902736;74;20225;-70
2021/08/26 04:37:08;;;;;;;;;;;14.40;99.90;;;;;;1902694;75;20505;-70
2021/08/26 04:39:34;;;;;;;;;;;14.40;99.90;;;;;;1902776;75;20119;-70
2021/08/26 04:42:01;;;;;;;;;;;14.40;99.90;;;;;;1902579;75;20450;-70
2021/08/26 04:44:29;;;;;;;;;;;14.40;99.90;;;;;;1902630;74;20166;-71
2021/08/26 04:46:55;;;;;;;;;;;14.40;99.90;;;;;;1902861;75;20252;-70
2021/08/26 04:49:22;;;;;;;;;;;14.40;99.90;;;;;;1902673;75;20247;-70
2021/08/26 04:51:49;;;;;;;;;;;14.40;99.90;;;;;;1902538;75;20741;-70
2021/08/26 04:54:18;;;;;;;;;;;14.40;99.90;;;;;;1902778;75;20166;-70
2021/08/26 04:56:45;;;;;;;;;;;14.40;99.90;;;;;;1902904;74;20384;-70
2021/08/26 04:59:12;;;;;;;;;;;14.40;99.90;;;;;;1902712;75;20165;-70
2021/08/26 05:01:38;;;;;;;;;;;14.40;99.90;;;;;;1902523;75;20420;-70
2021/08/26 05:04:06;;;;;;;;;;;14.40;99.90;;;;;;1902890;75;20107;-70
2021/08/26 05:06:33;;;;;;;;;;;14.50;99.90;;;;;;1902694;74;20174;-70
2021/08/26 05:09:00;;;;;;;;;;;14.60;99.90;;;;;;1902830;75;20124;-70
2021/08/26 05:11:27;;;;;;;;;;;14.60;99.90;;;;;;1902562;75;20443;-70
2021/08/26 05:13:53;;;;;;;;;;;14.60;99.90;;;;;;1902671;75;20161;-70
2021/08/26 05:16:20;;;;;;;;;;;14.60;99.90;;;;;;1902647;74;20147;-70
2021/08/26 05:18:47;;;;;;;;;;;14.50;99.90;;;;;;1902641;75;20417;-70
2021/08/26 05:21:14;;;;;;;;;;;14.60;99.90;;;;;;1902715;75;20153;-70
2021/08/26 05:23:41;;;;;;;;;;;14.60;99.90;;;;;;1902765;75;20212;-70
2021/08/26 05:26:09;;;;;;;;;;;14.70;99.90;;;;;;1902720;74;20169;-70
2021/08/26 05:28:36;;;;;;;;;;;14.70;99.90;;;;;;1902564;74;20101;-70
2021/08/26 05:31:03;;;;;;;;;;;14.70;99.90;;;;;;1902530;75;20163;-70
2021/08/26 05:33:29;;;;;;;;;;;14.80;99.90;;;;;;1902689;75;20159;-70
2021/08/26 05:35:56;;;;;;;;;;;14.80;99.90;;;;;;1902687;74;20416;-70
2021/08/26 05:38:23;;;;;;;;;;;14.80;99.90;;;;;;1902790;75;20174;-70
2021/08/26 05:40:50;;;;;;;;;;;14.80;99.90;;;;;;1902582;75;20409;-70
2021/08/26 05:43:17;;;;;;;;;;;14.80;99.90;;;;;;1902660;75;20131;-70
2021/08/26 05:45:43;;;;;;;;;;;14.80;99.90;;;;;;1902623;74;20299;-70
2021/08/26 05:48:10;;;;;;;;;;;14.80;99.90;;;;;;1902932;75;20119;-70
2021/08/26 05:50:37;;;;;;;;;;;14.90;99.90;;;;;;1902672;75;20162;-70
2021/08/26 05:53:04;;;;;;;;;;;14.90;99.90;;;;;;1902694;75;20419;-70
2021/08/26 05:55:31;;;;;;;;;;;14.90;99.90;;;;;;1902658;74;20112;-70
2021/08/26 05:57:58;;;;;;;;;;;14.90;99.90;;;;;;1902742;75;20201;-70
2021/08/26 06:00:25;;;;;;;;;;;14.90;99.90;;;;;;1902601;75;20131;-70
2021/08/26 06:02:51;;;;;;;;;;;15.00;99.90;;;;;;1902768;75;20166;-70
2021/08/26 06:05:19;;;;;;;;;;;15.00;99.90;;;;;;1902767;74;20162;-70
2021/08/26 06:07:47;;;;;;;;;;;15.10;99.90;;;;;;1902929;75;20178;-70
2021/08/26 06:10:14;;;;;;;;;;;15.10;99.90;;;;;;1902764;75;20154;-70
2021/08/26 06:12:42;;;;;;;;;;;15.10;99.90;;;;;;1902688;75;20178;-70
2021/08/26 06:15:09;;;;;;;;;;;15.10;99.90;;;;;;1902820;74;20170;-70
2021/08/26 06:17:36;;;;;;;;;;;15.10;99.90;;;;;;1902718;75;20162;-70
2021/08/26 06:20:07;;;;;;;;;;;15.20;99.90;;;;;;1903035;75;20162;-70
2021/08/26 06:22:34;;;;;;;;;;;15.20;99.90;;;;;;1902773;75;20214;-70
2021/08/26 06:25:01;;;;;;;;;;;15.30;99.90;;;;;;1902841;74;20438;-70
2021/08/26 06:27:28;;;;;;;;;;;15.20;99.90;;;;;;1902805;75;20119;-70
2021/08/26 06:29:54;;;;;;;;;;;15.30;99.90;;;;;;1902897;75;20189;-70
2021/08/26 06:32:21;;;;;;;;;;;15.30;99.90;;;;;;1902743;75;20452;-70
2021/08/26 06:34:48;;;;;;;;;;;15.30;99.90;;;;;;1902862;74;20118;-70
2021/08/26 06:37:15;;;;;;;;;;;15.30;99.90;;;;;;1903048;75;20432;-70
2021/08/26 06:39:41;;;;;;;;;;;15.40;99.90;;;;;;1902738;75;20127;-70
2021/08/26 06:42:08;;;;;;;;;;;15.50;99.90;;;;;;1902745;75;20593;-70
2021/08/26 06:44:35;;;;;;;;;;;15.50;99.90;;;;;;1902887;74;20196;-70
2021/08/26 06:47:02;;;;;;;;;;;15.60;99.90;;;;;;1902904;75;20108;-70
2021/08/26 06:49:29;;;;;;;;;;;15.60;99.90;;;;;;1903006;75;20366;-70
2021/08/26 06:51:56;;;;;;;;;;;15.70;99.90;;;;;;1902633;75;20208;-70
2021/08/26 06:54:22;;;;;;;;;;;15.70;99.90;;;;;;1902962;74;20177;-70
2021/08/26 06:56:49;;;;;;;;;;;15.70;99.90;;;;;;1902840;75;20225;-70
2021/08/26 06:59:16;;;;;;;;;;;15.80;99.90;;;;;;1902842;75;20154;-71
2021/08/26 07:01:43;;;;;;;;;;;15.80;99.90;;;;;;1902663;75;20380;-70
2021/08/26 07:04:09;;;;;;;;;;;15.80;99.90;;;;;;1902879;75;20166;-70
2021/08/26 07:06:36;;;;;;;;;;;15.90;99.90;;;;;;1902709;74;20381;-70
2021/08/26 07:09:04;;;;;;;;;;;15.90;99.90;;;;;;1903027;75;20170;-70
2021/08/26 07:11:31;;;;;;;;;;;15.90;99.90;;;;;;1902541;75;20185;-70
2021/08/26 07:13:57;;;;;;;;;;;15.90;99.90;;;;;;1902776;75;20161;-70
2021/08/26 07:16:24;;;;;;;;;;;16.00;99.90;;;;;;1902708;74;20169;-70
2021/08/26 07:18:51;;;;;;;;;;;16.00;99.90;;;;;;1902856;75;20118;-70
2021/08/26 07:21:18;;;;;;;;;;;16.00;99.90;;;;;;1902618;75;20169;-70
2021/08/26 07:23:45;;;;;;;;;;;16.00;99.90;;;;;;1902737;75;20158;-70
2021/08/26 07:26:11;;;;;;;;;;;16.00;99.90;;;;;;1902891;74;20182;-70
2021/08/26 07:28:38;;;;;;;;;;;16.10;99.90;;;;;;1902999;75;20162;-70
2021/08/26 07:31:05;;;;;;;;;;;16.10;99.90;;;;;;1902932;75;20108;-70
2021/08/26 07:33:32;;;;;;;;;;;16.00;99.90;;;;;;1903076;75;20149;-70
2021/08/26 07:35:59;;;;;;;;;;;16.00;99.90;;;;;;1903090;74;20174;-70
2021/08/26 07:38:26;;;;;;;;;;;16.00;99.90;;;;;;1903107;75;20111;-70
2021/08/26 07:40:53;;;;;;;;;;;16.10;99.90;;;;;;1902839;75;20165;-70
2021/08/26 07:43:21;;;;;;;;;;;16.10;99.90;;;;;;1903088;75;20119;-70
2021/08/26 07:45:47;;;;;;;;;;;16.20;99.90;;;;;;1903022;74;20420;-70
2021/08/26 07:48:14;;;;;;;;;;;16.30;99.90;;;;;;1903108;75;20112;-70
2021/08/26 07:50:41;;;;;;;;;;;16.30;99.90;;;;;;1902803;75;20158;-70
2021/08/26 07:53:08;;;;;;;;;;;16.40;99.90;;;;;;1903214;75;20123;-70
2021/08/26 07:55:35;;;;;;;;;;;16.40;99.90;;;;;;1903185;74;20162;-70
2021/08/26 07:58:01;;;;;;;;;;;16.50;99.90;;;;;;1903140;75;20178;-70
2021/08/26 08:00:28;;;;;;;;;;;16.60;99.90;;;;;;1902865;75;20149;-70
2021/08/26 08:02:55;;;;;;;;;;;16.60;99.90;;;;;;1903009;75;20170;-70
2021/08/26 08:05:22;;;;;;;;;;;16.60;99.90;;;;;;1903025;74;20166;-70
2021/08/26 08:07:49;;;;;;;;;;;16.60;99.90;;;;;;1903019;75;20622;-70
2021/08/26 08:10:16;;;;;;;;;;;16.70;99.90;;;;;;1902830;75;20170;-70
2021/08/26 08:12:43;;;;;;;;;;;16.70;99.90;;;;;;1902821;75;20162;-70
2021/08/26 08:15:10;;;;;;;;;;;16.70;99.90;;;;;;1902929;74;20174;-70
2021/08/26 08:17:37;;;;;;;;;;;16.80;99.90;;;;;;1902935;75;20150;-71
2021/08/26 08:20:06;;;;;;;;;;;16.80;99.90;;;;;;1902870;75;20477;-71
2021/08/26 08:22:32;;;;;;;;;;;16.90;99.90;;;;;;1902533;75;20158;-71
2021/08/26 08:24:59;;;;;;;;;;;16.90;99.90;;;;;;1902670;74;20170;-71
2021/08/26 08:27:26;;;;;;;;;;;16.90;99.90;;;;;;1903016;75;20163;-70
2021/08/26 08:29:53;;;;;;;;;;;16.90;99.90;;;;;;1902792;75;20104;-71
2021/08/26 08:32:20;;;;;;;;;;;16.90;99.90;;;;;;1902669;75;20142;-71
2021/08/26 08:35:06;;;;;;;;;;;17.00;99.90;;;;;;1902949;74;20163;-70
2021/08/26 08:37:32;;;;;;;;;;;17.00;99.90;;;;;;1917467;75;20188;-73
2021/08/26 08:39:59;;;;;;;;;;;17.10;99.90;;;;;;1917442;75;20116;-73
2021/08/26 08:42:31;;;;;;;;;;;17.10;99.90;;;;;;1917206;75;20171;-73
2021/08/26 08:44:55;;;;;;;;;;;17.20;99.90;;;;;;1919642;73;20183;-73
2021/08/26 08:47:21;;;;;;;;;;;17.20;99.90;;;;;;1964938;73;20105;-73
2021/08/26 08:49:50;;;;;;;;;;;17.30;99.90;;;;;;1964914;73;20161;-73
2021/08/26 08:52:18;;;;;;;;;;;17.30;99.90;;;;;;1964710;73;20172;-73
2021/08/26 08:54:44;;;;;;;;;;;17.30;99.90;;;;;;1964859;73;20168;-73
2021/08/26 08:57:12;;;;;;;;;;;17.40;99.90;;;;;;1964912;72;20226;-73
2021/08/26 08:59:39;;;;;;;;;;;17.30;99.90;;;;;;1965045;72;20187;-73
2021/08/26 09:02:06;;;;;;;;;;;17.40;99.90;;;;;;1964566;72;20434;-73
2021/08/26 09:04:35;;;;;;;;;;;17.40;99.90;;;;;;1964924;73;20176;-73
2021/08/26 09:07:01;;;;;;;;;;;17.50;99.90;;;;;;1964646;73;20168;-73
2021/08/26 09:09:28;;;;;;;;;;;17.60;99.90;;;;;;1964925;73;20121;-73
2021/08/26 09:11:56;;;;;;;;;;;17.60;99.90;;;;;;1964661;73;20203;-73
2021/08/26 09:14:24;;;;;;;;;;;17.60;99.90;;;;;;1965016;73;20165;-73
2021/08/26 09:16:54;;;;;;;;;;;17.60;99.90;;;;;;1964881;73;20161;-73
2021/08/26 09:19:31;;;;;;;;;;;17.50;99.90;;;;;;1965032;73;20387;-73
2021/08/26 09:21:59;;;;;;;;;;;17.50;99.90;;;;;;1964606;73;20450;-72
2021/08/26 09:24:45;;;;;;;;;;;17.40;99.90;;;;;;1964892;73;20156;-73
2021/08/26 09:27:12;;;;;;;;;;;17.30;99.90;;;;;;1964857;72;20191;-73
2021/08/26 09:29:59;;;;;;;;;;;17.30;99.90;;;;;;1964940;72;20331;-73
2021/08/26 09:32:36;;;;;;;;;;;17.40;99.90;;;;;;1964624;73;20172;-73
2021/08/26 09:35:11;;;;;;;;;;;17.50;99.90;;;;;;1964778;73;20113;-73
2021/08/26 09:37:52;;;;;;;;;;;17.70;99.90;;;;;;1964821;73;20152;-72
2021/08/26 09:40:20;;;;;;;;;;;17.80;99.90;;;;;;1964715;73;20137;-73
2021/08/26 09:42:57;;;;;;;;;;;17.90;99.90;;;;;;1964868;73;20438;-73
2021/08/26 09:45:25;;;;;;;;;;;17.90;99.90;;;;;;1965092;73;20195;-73
2021/08/26 09:47:59;;;;;;;;;;;17.90;99.90;;;;;;1964920;73;20144;-73
2021/08/26 09:50:36;;;;;;;;;;;17.90;99.90;;;;;;1964791;73;20442;-73
2021/08/26 09:53:03;;;;;;;;;;;17.80;99.90;;;;;;1964918;73;20113;-73
2021/08/26 09:55:31;;;;;;;;;;;17.80;99.90;;;;;;1965013;73;20149;-73
2021/08/26 09:58:03;;;;;;;;;;;17.80;99.90;;;;;;1960901;73;20168;-73
2021/08/26 10:00:30;;;;;;;;;;;17.80;99.90;;;;;;1962798;73;20147;-73
2021/08/26 10:02:56;;;;;;;;;;;17.80;99.90;;;;;;1964880;72;20165;-73
2021/08/26 10:05:23;;;;;;;;;;;17.80;99.90;;;;;;1964951;73;20168;-73
2021/08/26 10:07:52;;;;;;;;;;;17.60;99.90;;;;;;1964903;73;20143;-73
2021/08/26 10:10:18;;;;;;;;;;;17.60;99.90;;;;;;1964691;72;20322;-73
2021/08/26 10:12:45;;;;;;;;;;;17.50;99.90;;;;;;1965023;72;20176;-73
2021/08/26 10:15:12;;;;;;;;;;;17.40;99.90;;;;;;1964963;73;20161;-73
2021/08/26 10:17:39;;;;;;;;;;;17.40;99.90;;;;;;1964943;73;20168;-73
2021/08/26 10:20:07;;;;;;;;;;;17.40;99.90;;;;;;1964890;73;20231;-74
2021/08/26 10:22:34;;;;;;;;;;;17.40;99.90;;;;;;1964689;73;20118;-73
2021/08/26 10:25:01;;;;;;;;;;;17.60;99.90;;;;;;1964924;72;20272;-73
2021/08/26 10:27:30;;;;;;;;;;;17.80;99.90;;;;;;1965083;72;20442;-73
2021/08/26 10:29:56;;;;;;;;;;;18.20;99.90;;;;;;1964976;73;20117;-73
2021/08/26 10:32:24;;;;;;;;;;;18.20;99.90;;;;;;1964813;73;20406;-73
2021/08/26 10:35:10;;;;;;;;;;;18.30;99.90;;;;;;1964930;72;20490;-70
2021/08/26 10:37:53;;;;;;;;;;;18.40;99.90;;;;;;1965047;73;20145;-73
2021/08/26 10:40:26;;;;;;;;;;;18.40;99.90;;;;;;1964454;73;20423;-73
2021/08/26 10:42:54;;;;;;;;;;;18.30;99.90;;;;;;1964716;73;20144;-73
2021/08/26 10:45:27;;;;;;;;;;;18.20;99.90;;;;;;1964998;73;20117;-73
2021/08/26 10:47:56;;;;;;;;;;;18.10;99.90;;;;;;1962489;73;20438;-71
2021/08/26 10:50:24;;;;;;;;;;;18.10;99.90;;;;;;1964697;73;20164;-73
2021/08/26 10:52:54;;;;;;;;;;;18.00;99.90;;;;;;1964983;73;20117;-73
2021/08/26 10:55:31;;;;;;;;;;;18.00;99.90;;;;;;1964971;73;20125;-73
2021/08/26 10:58:16;;;;;;;;;;;17.90;99.90;;;;;;1965014;73;20484;-73
2021/08/26 11:00:43;;;;;;;;;;;17.80;99.90;;;;;;1964738;73;20144;-73
2021/08/26 11:03:11;;;;;;;;;;;17.80;99.90;;;;;;1964970;72;20168;-73
2021/08/26 11:05:39;;;;;;;;;;;17.90;99.90;;;;;;1964934;72;20156;-73
2021/08/26 11:08:11;;;;;;;;;;;17.80;99.90;;;;;;1964831;73;20149;-73
2021/08/26 11:10:37;;;;;;;;;;;17.70;99.90;;;;;;1964253;72;20453;-73
2021/08/26 11:13:22;;;;;;;;;;;17.70;99.90;;;;;;1964904;73;20170;-73
2021/08/26 11:15:49;;;;;;;;;;;17.70;99.90;;;;;;1964957;72;20165;-73
2021/08/26 11:18:29;;;;;;;;;;;17.60;99.90;;;;;;1964950;73;20109;-73
2021/08/26 11:20:56;;;;;;;;;;;17.70;99.90;;;;;;1964628;73;20198;-73
2021/08/26 11:23:41;;;;;;;;;;;17.70;99.90;;;;;;1964947;73;20164;-73
2021/08/26 11:26:25;;;;;;;;;;;17.90;99.90;;;;;;1964892;73;20114;-73
2021/08/26 11:28:52;;;;;;;;;;;18.10;99.90;;;;;;1964924;72;20106;-73
2021/08/26 11:31:20;;;;;;;;;;;18.30;99.90;;;;;;1964664;73;20161;-73
2021/08/26 11:33:47;;;;;;;;;;;18.40;99.90;;;;;;1964729;73;20180;-73
2021/08/26 11:36:15;;;;;;;;;;;18.50;99.90;;;;;;1964726;73;20403;-73
2021/08/26 11:38:46;;;;;;;;;;;18.50;99.90;;;;;;1964943;72;20106;-73
2021/08/26 11:41:13;;;;;;;;;;;18.50;99.90;;;;;;1964649;73;20164;-73
2021/08/26 11:43:44;;;;;;;;;;;18.60;99.90;;;;;;1964970;72;20160;-73
2021/08/26 11:46:12;;;;;;;;;;;18.60;99.90;;;;;;1964826;73;20973;-73
2021/08/26 11:48:49;;;;;;;;;;;18.70;99.90;;;;;;1964594;73;20117;-73
2021/08/26 11:51:21;;;;;;;;;;;18.80;99.90;;;;;;1964697;73;20153;-73
2021/08/26 11:53:47;;;;;;;;;;;18.80;99.90;;;;;;1964560;73;20160;-73
2021/08/26 11:56:14;;;;;;;;;;;18.90;99.90;;;;;;1964898;73;20156;-73
2021/08/26 11:58:41;;;;;;;;;;;18.90;99.90;;;;;;1965168;72;20113;-73
2021/08/26 12:01:08;;;;;;;;;;;18.90;99.90;;;;;;1964369;73;20168;-73
2021/08/26 12:03:35;;;;;;;;;;;18.80;99.90;;;;;;1949169;73;20116;-73
2021/08/26 12:06:06;;;;;;;;;;;18.60;99.90;;;;;;1955169;73;20503;-71
2021/08/26 12:08:33;;;;;;;;;;;18.60;99.90;;;;;;1954593;73;20104;-73
2021/08/26 12:11:00;;;;;;;;;;;18.80;99.90;;;;;;1954937;73;20112;-72
2021/08/26 12:13:29;;;;;;;;;;;19.00;99.90;;;;;;1954581;73;20149;-73
2021/08/26 12:15:56;;;;;;;;;;;19.10;99.90;;;;;;1954487;73;20200;-73
2021/08/26 12:18:27;;;;;;;;;;;19.20;99.90;;;;;;1954579;73;20466;-73
2021/08/26 12:20:55;;;;;;;;;;;19.30;99.90;;;;;;1954376;73;20160;-73
2021/08/26 12:23:23;;;;;;;;;;;19.30;99.90;;;;;;1953326;73;20168;-73
2021/08/26 12:26:07;;;;;;;;;;;19.40;99.90;;;;;;1954749;73;20277;-73
2021/08/26 12:28:35;;;;;;;;;;;19.40;99.90;;;;;;1954638;73;20399;-73
2021/08/26 12:31:03;;;;;;;;;;;19.40;99.90;;;;;;1954083;73;20113;-73
2021/08/26 12:33:30;;;;;;;;;;;19.40;99.90;;;;;;1940763;73;20617;-73
2021/08/26 12:35:58;;;;;;;;;;;19.50;99.90;;;;;;1954571;73;20199;-73
2021/08/26 12:38:33;;;;;;;;;;;19.50;99.90;;;;;;1954613;73;20192;-73
2021/08/26 12:41:01;;;;;;;;;;;19.60;99.90;;;;;;1934228;73;20108;-73
2021/08/26 12:43:29;;;;;;;;;;;19.60;99.90;;;;;;1920817;75;20167;-71
2021/08/26 12:46:06;;;;;;;;;;;19.70;99.90;;;;;;1918682;75;20455;-71
2021/08/26 12:51:27;;;;;;;;;;;19.70;99.90;;;;;;1960183;73;20142;-73
2021/08/26 12:53:58;;;;;;;;;;;19.70;99.90;;;;;;1960252;73;20184;-73
2021/08/26 12:56:25;;;;;;;;;;;19.70;99.90;;;;;;1960159;73;20116;-73
2021/08/26 12:58:53;;;;;;;;;;;19.50;99.90;;;;;;1934653;73;20153;-73
2021/08/26 13:01:24;;;;;;;;;;;19.30;99.90;;;;;;1941399;74;20160;-74
2021/08/26 13:03:52;;;;;;;;;;;19.10;99.90;;;;;;1941531;74;20121;-73
2021/08/26 13:06:36;;;;;;;;;;;18.90;99.90;;;;;;1941407;72;20113;-73
2021/08/26 13:09:10;;;;;;;;;;;18.80;99.90;;;;;;1941332;72;20164;-73
2021/08/26 13:11:36;;;;;;;;;;;18.70;99.90;;;;;;1940532;73;20180;-73
2021/08/26 13:14:03;;;;;;;;;;;18.50;99.90;;;;;;1940353;74;20117;-73
2021/08/26 13:16:30;;;;;;;;;;;18.40;99.90;;;;;;1941438;74;20165;-73
2021/08/26 13:18:57;;;;;;;;;;;18.20;99.90;;;;;;1941598;74;20161;-73
2021/08/26 13:21:23;;;;;;;;;;;18.10;99.90;;;;;;1941489;73;20109;-74
2021/08/26 13:23:50;;;;;;;;;;;18.10;99.90;;;;;;1941515;74;20167;-73
2021/08/26 13:26:17;;;;;;;;;;;18.10;99.90;;;;;;1941422;72;20180;-73
2021/08/26 13:28:44;;;;;;;;;;;18.20;99.90;;;;;;1941667;74;20143;-73
2021/08/26 13:31:11;;;;;;;;;;;18.50;99.90;;;;;;1941401;72;20200;-73
2021/08/26 13:33:37;;;;;;;;;;;18.90;99.90;;;;;;1941510;74;20403;-73
2021/08/26 13:36:05;;;;;;;;;;;18.90;99.90;;;;;;1941309;74;20328;-72
2021/08/26 13:38:31;;;;;;;;;;;18.80;99.90;;;;;;1941417;74;20172;-71
2021/08/26 13:40:58;;;;;;;;;;;18.50;99.90;;;;;;1941179;72;20125;-73
2021/08/26 13:43:25;;;;;;;;;;;18.40;99.90;;;;;;1941547;74;20317;-73
2021/08/26 13:45:52;;;;;;;;;;;18.30;99.90;;;;;;1941439;74;20120;-73
2021/08/26 13:48:19;;;;;;;;;;;18.10;99.90;;;;;;1941300;72;20198;-73
2021/08/26 13:50:46;;;;;;;;;;;18.00;99.90;;;;;;1941331;72;20200;-73
2021/08/26 13:53:13;;;;;;;;;;;17.90;99.90;;;;;;1941394;74;20152;-73
2021/08/26 13:55:39;;;;;;;;;;;17.90;99.90;;;;;;1941490;73;20447;-73
2021/08/26 13:58:06;;;;;;;;;;;17.90;99.90;;;;;;1941697;72;20121;-73
2021/08/26 14:00:33;;;;;;;;;;;18.00;99.90;;;;;;1941194;74;20215;-73
2021/08/26 14:03:00;;;;;;;;;;;18.00;99.90;;;;;;1941665;74;20113;-73
2021/08/26 14:05:28;;;;;;;;;;;18.10;99.90;;;;;;1941447;74;20180;-73
2021/08/26 14:07:55;;;;;;;;;;;18.00;99.90;;;;;;1941611;74;20156;-73
2021/08/26 14:10:22;;;;;;;;;;;18.10;99.90;;;;;;1941570;73;20168;-74
2021/08/26 14:12:50;;;;;;;;;;;18.10;99.90;;;;;;1941447;74;20286;-73
2021/08/26 14:15:17;;;;;;;;;;;18.20;99.90;;;;;;1941510;74;20166;-73
2021/08/26 14:17:43;;;;;;;;;;;18.20;99.90;;;;;;1941461;74;20230;-73
2021/08/26 14:20:10;;;;;;;;;;;18.10;99.90;;;;;;1941463;72;20172;-73
2021/08/26 14:22:37;;;;;;;;;;;18.10;99.90;;;;;;1941426;74;20121;-73
2021/08/26 14:25:05;;;;;;;;;;;18.40;99.90;;;;;;1941276;74;20189;-73
2021/08/26 14:27:32;;;;;;;;;;;18.70;99.90;;;;;;1941054;72;20218;-73
2021/08/26 14:29:59;;;;;;;;;;;18.70;99.90;;;;;;1941270;74;20139;-73